Terminal Aerodrome Forecast
Issued by NWS

Home | Current Version | Previous Version | Text Only | Print | Product List | Glossary On
Versions: 1 2 3 4 5 6 7 8 9 10 11 12 13 14 15 16 17 18 19 20 21 22 23 24 25 26 27
000
FTUS44 KBMX 221200 AAA
TAFTOI
TAF AMD
KTOI 221200Z 2212/2312 00000KT 1SM BR FEW009 OVC017
     FM221400 20005KT 5SM BR BKN017
     FM221600 20010G17KT 4SM -TSRA BR OVC035CB
      TEMPO 2217/2221 2SM TSRA
     FM222100 27013G19KT P6SM OVC040
     FM230600 26012KT P6SM OVC015=

USA.gov is the U.S. government's official web portal to all federal, state and local government web resources and services.